sensor_id;sensor_type;location;lat;lon;timestamp;P1;durP1;ratioP1;P2;durP2;ratioP2
70967;SDS011;58629;48.808;8.820;2023-04-08T00:01:27;16.60;;;8.83;;
70967;SDS011;58629;48.808;8.820;2023-04-08T00:03:52;16.80;;;8.40;;
70967;SDS011;58629;48.808;8.820;2023-04-08T00:06:17;15.27;;;8.00;;
70967;SDS011;58629;48.808;8.820;2023-04-08T00:08:43;14.60;;;7.50;;
70967;SDS011;58629;48.808;8.820;2023-04-08T00:11:08;16.35;;;8.18;;
70967;SDS011;58629;48.808;8.820;2023-04-08T00:13:33;17.07;;;8.07;;
70967;SDS011;58629;48.808;8.820;2023-04-08T00:15:59;14.97;;;8.20;;
70967;SDS011;58629;48.808;8.820;2023-04-08T00:18:25;15.27;;;8.00;;
70967;SDS011;58629;48.808;8.820;2023-04-08T00:20:51;16.87;;;8.47;;
70967;SDS011;58629;48.808;8.820;2023-04-08T00:23:16;15.83;;;8.33;;
70967;SDS011;58629;48.808;8.820;2023-04-08T00:25:42;17.08;;;8.63;;
70967;SDS011;58629;48.808;8.820;2023-04-08T00:28:07;16.63;;;9.23;;
70967;SDS011;58629;48.808;8.820;2023-04-08T00:30:33;18.70;;;9.50;;
70967;SDS011;58629;48.808;8.820;2023-04-08T00:32:58;15.05;;;8.32;;
70967;SDS011;58629;48.808;8.820;2023-04-08T00:35:24;16.43;;;8.13;;
70967;SDS011;58629;48.808;8.820;2023-04-08T00:37:49;15.77;;;8.17;;
70967;SDS011;58629;48.808;8.820;2023-04-08T00:40:15;13.55;;;7.45;;
70967;SDS011;58629;48.808;8.820;2023-04-08T00:42:40;13.47;;;6.80;;
70967;SDS011;58629;48.808;8.820;2023-04-08T00:45:06;13.53;;;6.73;;
70967;SDS011;58629;48.808;8.820;2023-04-08T00:47:32;17.23;;;9.10;;
70967;SDS011;58629;48.808;8.820;2023-04-08T00:49:59;15.73;;;8.57;;
70967;SDS011;58629;48.808;8.820;2023-04-08T00:52:24;16.50;;;8.50;;
70967;SDS011;58629;48.808;8.820;2023-04-08T00:54:50;17.17;;;8.97;;
70967;SDS011;58629;48.808;8.820;2023-04-08T00:57:15;17.47;;;9.30;;
70967;SDS011;58629;48.808;8.820;2023-04-08T00:59:40;18.83;;;8.77;;
70967;SDS011;58629;48.808;8.820;2023-04-08T01:02:11;18.85;;;9.45;;
70967;SDS011;58629;48.808;8.820;2023-04-08T01:07:17;19.23;;;10.10;;
70967;SDS011;58629;48.808;8.820;2023-04-08T01:09:50;20.73;;;10.15;;
70967;SDS011;58629;48.808;8.820;2023-04-08T01:12:21;20.58;;;10.10;;
70967;SDS011;58629;48.808;8.820;2023-04-08T01:14:51;21.67;;;10.00;;
70967;SDS011;58629;48.808;8.820;2023-04-08T01:17:23;19.02;;;9.35;;
70967;SDS011;58629;48.808;8.820;2023-04-08T01:19:48;19.30;;;9.00;;
70967;SDS011;58629;48.808;8.820;2023-04-08T01:24:49;21.08;;;9.80;;
70967;SDS011;58629;48.808;8.820;2023-04-08T01:27:21;19.60;;;9.07;;
70967;SDS011;58629;48.808;8.820;2023-04-08T01:29:47;20.27;;;9.82;;
70967;SDS011;58629;48.808;8.820;2023-04-08T01:32:13;18.80;;;8.52;;
70967;SDS011;58629;48.808;8.820;2023-04-08T01:34:40;21.50;;;9.45;;
70967;SDS011;58629;48.808;8.820;2023-04-08T01:37:06;20.13;;;9.40;;
70967;SDS011;58629;48.808;8.820;2023-04-08T01:39:32;20.40;;;9.23;;
70967;SDS011;58629;48.808;8.820;2023-04-08T01:41:59;19.13;;;8.98;;
70967;SDS011;58629;48.808;8.820;2023-04-08T01:44:26;20.27;;;9.18;;
70967;SDS011;58629;48.808;8.820;2023-04-08T01:46:52;18.53;;;8.60;;
70967;SDS011;58629;48.808;8.820;2023-04-08T01:49:19;20.48;;;9.20;;
70967;SDS011;58629;48.808;8.820;2023-04-08T01:51:46;19.35;;;9.00;;
70967;SDS011;58629;48.808;8.820;2023-04-08T01:54:13;21.65;;;9.52;;
70967;SDS011;58629;48.808;8.820;2023-04-08T01:56:39;20.83;;;9.07;;
70967;SDS011;58629;48.808;8.820;2023-04-08T01:59:07;21.02;;;9.27;;
70967;SDS011;58629;48.808;8.820;2023-04-08T02:01:35;19.47;;;9.27;;
70967;SDS011;58629;48.808;8.820;2023-04-08T02:04:01;20.15;;;9.20;;
70967;SDS011;58629;48.808;8.820;2023-04-08T02:06:27;23.27;;;10.10;;
70967;SDS011;58629;48.808;8.820;2023-04-08T02:08:53;21.17;;;9.10;;
70967;SDS011;58629;48.808;8.820;2023-04-08T02:11:19;22.93;;;9.90;;
70967;SDS011;58629;48.808;8.820;2023-04-08T02:13:45;20.77;;;9.15;;
70967;SDS011;58629;48.808;8.820;2023-04-08T02:16:15;22.40;;;9.93;;
70967;SDS011;58629;48.808;8.820;2023-04-08T02:18:48;20.27;;;9.25;;
70967;SDS011;58629;48.808;8.820;2023-04-08T02:21:35;20.33;;;9.60;;
70967;SDS011;58629;48.808;8.820;2023-04-08T02:24:06;19.27;;;8.48;;
70967;SDS011;58629;48.808;8.820;2023-04-08T02:26:33;20.00;;;9.10;;
70967;SDS011;58629;48.808;8.820;2023-04-08T02:29:01;20.05;;;9.10;;
70967;SDS011;58629;48.808;8.820;2023-04-08T02:31:29;18.40;;;8.90;;
70967;SDS011;58629;48.808;8.820;2023-04-08T02:33:55;19.83;;;8.70;;
70967;SDS011;58629;48.808;8.820;2023-04-08T02:36:21;18.95;;;8.88;;
70967;SDS011;58629;48.808;8.820;2023-04-08T02:38:47;19.08;;;8.77;;
70967;SDS011;58629;48.808;8.820;2023-04-08T02:41:13;17.50;;;8.48;;
70967;SDS011;58629;48.808;8.820;2023-04-08T02:43:40;19.30;;;8.40;;
70967;SDS011;58629;48.808;8.820;2023-04-08T02:46:05;17.43;;;8.33;;
70967;SDS011;58629;48.808;8.820;2023-04-08T02:48:31;17.67;;;8.67;;
70967;SDS011;58629;48.808;8.820;2023-04-08T02:50:56;21.13;;;9.15;;
70967;SDS011;58629;48.808;8.820;2023-04-08T02:53:22;19.07;;;9.33;;
70967;SDS011;58629;48.808;8.820;2023-04-08T02:55:48;20.17;;;9.17;;
70967;SDS011;58629;48.808;8.820;2023-04-08T02:58:13;20.42;;;9.00;;
70967;SDS011;58629;48.808;8.820;2023-04-08T03:00:39;20.40;;;9.07;;
70967;SDS011;58629;48.808;8.820;2023-04-08T03:03:05;20.52;;;9.55;;
70967;SDS011;58629;48.808;8.820;2023-04-08T03:05:30;20.35;;;9.32;;
70967;SDS011;58629;48.808;8.820;2023-04-08T03:07:56;20.50;;;9.53;;
70967;SDS011;58629;48.808;8.820;2023-04-08T03:10:21;18.70;;;8.83;;
70967;SDS011;58629;48.808;8.820;2023-04-08T03:12:46;18.53;;;9.13;;
70967;SDS011;58629;48.808;8.820;2023-04-08T03:15:12;20.30;;;9.37;;
70967;SDS011;58629;48.808;8.820;2023-04-08T03:17:37;18.60;;;8.73;;
70967;SDS011;58629;48.808;8.820;2023-04-08T03:20:02;18.45;;;9.18;;
70967;SDS011;58629;48.808;8.820;2023-04-08T03:22:31;19.37;;;8.97;;
70967;SDS011;58629;48.808;8.820;2023-04-08T03:24:57;18.95;;;8.75;;
70967;SDS011;58629;48.808;8.820;2023-04-08T03:27:23;18.77;;;8.90;;
70967;SDS011;58629;48.808;8.820;2023-04-08T03:29:48;17.47;;;8.90;;
70967;SDS011;58629;48.808;8.820;2023-04-08T03:32:13;18.77;;;8.63;;
70967;SDS011;58629;48.808;8.820;2023-04-08T03:34:38;17.63;;;8.77;;
70967;SDS011;58629;48.808;8.820;2023-04-08T03:37:04;16.58;;;7.82;;
70967;SDS011;58629;48.808;8.820;2023-04-08T03:39:29;18.43;;;8.63;;
70967;SDS011;58629;48.808;8.820;2023-04-08T03:41:55;17.77;;;8.40;;
70967;SDS011;58629;48.808;8.820;2023-04-08T03:44:21;16.90;;;8.38;;
70967;SDS011;58629;48.808;8.820;2023-04-08T03:46:46;18.70;;;8.80;;
70967;SDS011;58629;48.808;8.820;2023-04-08T03:49:12;18.57;;;8.53;;
70967;SDS011;58629;48.808;8.820;2023-04-08T03:51:37;19.53;;;9.37;;
70967;SDS011;58629;48.808;8.820;2023-04-08T03:54:02;19.63;;;8.60;;
70967;SDS011;58629;48.808;8.820;2023-04-08T03:56:27;19.70;;;9.38;;
70967;SDS011;58629;48.808;8.820;2023-04-08T03:58:53;19.90;;;9.50;;
70967;SDS011;58629;48.808;8.820;2023-04-08T04:01:18;18.10;;;8.70;;
70967;SDS011;58629;48.808;8.820;2023-04-08T04:03:43;19.37;;;9.03;;
70967;SDS011;58629;48.808;8.820;2023-04-08T04:06:09;20.00;;;8.93;;
70967;SDS011;58629;48.808;8.820;2023-04-08T04:08:34;20.83;;;9.43;;
70967;SDS011;58629;48.808;8.820;2023-04-08T04:10:59;21.13;;;9.37;;
70967;SDS011;58629;48.808;8.820;2023-04-08T04:13:25;18.63;;;8.57;;
70967;SDS011;58629;48.808;8.820;2023-04-08T04:15:50;19.25;;;9.30;;
70967;SDS011;58629;48.808;8.820;2023-04-08T04:18:15;19.77;;;8.47;;
70967;SDS011;58629;48.808;8.820;2023-04-08T04:20:41;21.13;;;9.13;;
70967;SDS011;58629;48.808;8.820;2023-04-08T04:23:07;19.37;;;9.40;;
70967;SDS011;58629;48.808;8.820;2023-04-08T04:25:32;18.65;;;8.95;;
70967;SDS011;58629;48.808;8.820;2023-04-08T04:27:58;19.70;;;9.47;;
70967;SDS011;58629;48.808;8.820;2023-04-08T04:30:23;20.00;;;8.90;;
70967;SDS011;58629;48.808;8.820;2023-04-08T04:32:48;20.47;;;9.83;;
70967;SDS011;58629;48.808;8.820;2023-04-08T04:35:14;20.73;;;9.00;;
70967;SDS011;58629;48.808;8.820;2023-04-08T04:37:39;20.03;;;9.50;;
70967;SDS011;58629;48.808;8.820;2023-04-08T04:40:04;20.60;;;8.77;;
70967;SDS011;58629;48.808;8.820;2023-04-08T04:42:31;18.38;;;9.05;;
70967;SDS011;58629;48.808;8.820;2023-04-08T04:44:57;19.08;;;9.07;;
70967;SDS011;58629;48.808;8.820;2023-04-08T04:47:22;18.13;;;9.33;;
70967;SDS011;58629;48.808;8.820;2023-04-08T04:49:48;19.42;;;9.25;;
70967;SDS011;58629;48.808;8.820;2023-04-08T04:52:13;18.83;;;9.15;;
70967;SDS011;58629;48.808;8.820;2023-04-08T04:54:38;19.73;;;9.23;;
70967;SDS011;58629;48.808;8.820;2023-04-08T04:57:04;18.57;;;8.87;;
70967;SDS011;58629;48.808;8.820;2023-04-08T04:59:29;21.97;;;9.13;;
70967;SDS011;58629;48.808;8.820;2023-04-08T05:01:55;19.53;;;9.53;;
70967;SDS011;58629;48.808;8.820;2023-04-08T05:04:21;17.67;;;8.73;;
70967;SDS011;58629;48.808;8.820;2023-04-08T05:06:47;19.42;;;9.50;;
70967;SDS011;58629;48.808;8.820;2023-04-08T05:09:12;19.50;;;9.60;;
70967;SDS011;58629;48.808;8.820;2023-04-08T05:11:38;19.97;;;9.23;;
70967;SDS011;58629;48.808;8.820;2023-04-08T05:14:03;18.37;;;9.27;;
70967;SDS011;58629;48.808;8.820;2023-04-08T05:16:28;20.47;;;9.57;;
70967;SDS011;58629;48.808;8.820;2023-04-08T05:18:53;19.97;;;9.37;;
70967;SDS011;58629;48.808;8.820;2023-04-08T05:21:19;17.50;;;9.10;;
70967;SDS011;58629;48.808;8.820;2023-04-08T05:23:44;18.90;;;8.90;;
70967;SDS011;58629;48.808;8.820;2023-04-08T05:26:10;19.33;;;9.35;;
70967;SDS011;58629;48.808;8.820;2023-04-08T05:28:35;16.87;;;8.20;;
70967;SDS011;58629;48.808;8.820;2023-04-08T05:31:01;16.50;;;8.30;;
70967;SDS011;58629;48.808;8.820;2023-04-08T05:33:26;17.17;;;8.30;;
70967;SDS011;58629;48.808;8.820;2023-04-08T05:35:51;18.70;;;8.67;;
70967;SDS011;58629;48.808;8.820;2023-04-08T05:38:17;18.75;;;8.65;;
70967;SDS011;58629;48.808;8.820;2023-04-08T05:40:42;18.27;;;8.63;;
70967;SDS011;58629;48.808;8.820;2023-04-08T05:43:08;17.83;;;8.97;;
70967;SDS011;58629;48.808;8.820;2023-04-08T05:45:33;19.90;;;9.27;;
70967;SDS011;58629;48.808;8.820;2023-04-08T05:47:58;19.47;;;9.30;;
70967;SDS011;58629;48.808;8.820;2023-04-08T05:50:24;22.17;;;9.33;;
70967;SDS011;58629;48.808;8.820;2023-04-08T05:52:49;19.67;;;9.40;;
70967;SDS011;58629;48.808;8.820;2023-04-08T05:55:15;19.90;;;9.13;;
70967;SDS011;58629;48.808;8.820;2023-04-08T05:57:40;21.40;;;9.30;;
70967;SDS011;58629;48.808;8.820;2023-04-08T06:00:06;21.03;;;9.60;;
70967;SDS011;58629;48.808;8.820;2023-04-08T06:02:34;23.55;;;10.25;;
70967;SDS011;58629;48.808;8.820;2023-04-08T06:05:00;20.80;;;9.32;;
70967;SDS011;58629;48.808;8.820;2023-04-08T06:07:25;18.20;;;8.57;;
70967;SDS011;58629;48.808;8.820;2023-04-08T06:09:50;17.33;;;8.83;;
70967;SDS011;58629;48.808;8.820;2023-04-08T06:12:15;19.37;;;8.37;;
70967;SDS011;58629;48.808;8.820;2023-04-08T06:14:41;17.20;;;7.80;;
70967;SDS011;58629;48.808;8.820;2023-04-08T06:17:06;15.40;;;7.45;;
70967;SDS011;58629;48.808;8.820;2023-04-08T06:19:31;15.23;;;7.30;;
70967;SDS011;58629;48.808;8.820;2023-04-08T06:21:57;17.40;;;8.00;;
70967;SDS011;58629;48.808;8.820;2023-04-08T06:24:26;15.87;;;8.30;;
70967;SDS011;58629;48.808;8.820;2023-04-08T06:26:53;17.50;;;7.90;;
70967;SDS011;58629;48.808;8.820;2023-04-08T06:29:19;17.20;;;8.20;;
70967;SDS011;58629;48.808;8.820;2023-04-08T06:31:45;17.98;;;8.50;;
70967;SDS011;58629;48.808;8.820;2023-04-08T06:34:11;20.00;;;8.93;;
70967;SDS011;58629;48.808;8.820;2023-04-08T06:36:36;19.40;;;8.87;;
70967;SDS011;58629;48.808;8.820;2023-04-08T06:39:01;21.33;;;9.80;;
70967;SDS011;58629;48.808;8.820;2023-04-08T06:41:27;19.33;;;9.57;;
70967;SDS011;58629;48.808;8.820;2023-04-08T06:43:52;19.00;;;8.77;;
70967;SDS011;58629;48.808;8.820;2023-04-08T06:46:18;19.20;;;9.83;;
70967;SDS011;58629;48.808;8.820;2023-04-08T06:48:43;20.60;;;9.50;;
70967;SDS011;58629;48.808;8.820;2023-04-08T06:51:08;19.93;;;8.93;;
70967;SDS011;58629;48.808;8.820;2023-04-08T06:53:34;17.60;;;8.47;;
70967;SDS011;58629;48.808;8.820;2023-04-08T06:55:59;17.50;;;8.32;;
70967;SDS011;58629;48.808;8.820;2023-04-08T06:58:25;17.73;;;8.63;;
70967;SDS011;58629;48.808;8.820;2023-04-08T07:00:52;16.77;;;8.10;;
70967;SDS011;58629;48.808;8.820;2023-04-08T07:03:18;14.88;;;7.43;;
70967;SDS011;58629;48.808;8.820;2023-04-08T07:05:43;12.83;;;6.57;;
70967;SDS011;58629;48.808;8.820;2023-04-08T07:08:09;14.67;;;6.63;;
70967;SDS011;58629;48.808;8.820;2023-04-08T07:10:34;12.60;;;6.23;;
70967;SDS011;58629;48.808;8.820;2023-04-08T07:13:00;9.73;;;5.82;;
70967;SDS011;58629;48.808;8.820;2023-04-08T07:15:25;12.43;;;6.40;;
70967;SDS011;58629;48.808;8.820;2023-04-08T07:17:51;14.23;;;6.40;;
70967;SDS011;58629;48.808;8.820;2023-04-08T07:20:16;12.27;;;6.33;;
70967;SDS011;58629;48.808;8.820;2023-04-08T07:22:42;25.77;;;11.85;;
70967;SDS011;58629;48.808;8.820;2023-04-08T07:25:07;11.87;;;6.47;;
70967;SDS011;58629;48.808;8.820;2023-04-08T07:27:33;9.52;;;5.75;;
70967;SDS011;58629;48.808;8.820;2023-04-08T07:29:58;10.50;;;5.53;;
70967;SDS011;58629;48.808;8.820;2023-04-08T07:32:24;10.60;;;5.77;;
70967;SDS011;58629;48.808;8.820;2023-04-08T07:34:49;9.80;;;5.53;;
70967;SDS011;58629;48.808;8.820;2023-04-08T07:37:14;10.03;;;5.77;;
70967;SDS011;58629;48.808;8.820;2023-04-08T07:39:40;9.85;;;5.65;;
70967;SDS011;58629;48.808;8.820;2023-04-08T07:42:05;10.67;;;5.73;;
70967;SDS011;58629;48.808;8.820;2023-04-08T07:44:30;14.93;;;8.60;;
70967;SDS011;58629;48.808;8.820;2023-04-08T07:46:56;12.13;;;6.33;;
70967;SDS011;58629;48.808;8.820;2023-04-08T07:49:21;11.27;;;6.47;;
70967;SDS011;58629;48.808;8.820;2023-04-08T07:51:46;12.93;;;6.60;;
70967;SDS011;58629;48.808;8.820;2023-04-08T07:54:11;11.17;;;6.10;;
70967;SDS011;58629;48.808;8.820;2023-04-08T07:56:41;13.75;;;7.00;;
70967;SDS011;58629;48.808;8.820;2023-04-08T07:59:08;14.18;;;7.03;;
70967;SDS011;58629;48.808;8.820;2023-04-08T08:01:34;13.27;;;6.97;;
70967;SDS011;58629;48.808;8.820;2023-04-08T08:04:00;12.35;;;6.65;;
70967;SDS011;58629;48.808;8.820;2023-04-08T08:06:25;13.23;;;7.50;;
70967;SDS011;58629;48.808;8.820;2023-04-08T08:08:54;16.27;;;10.02;;
70967;SDS011;58629;48.808;8.820;2023-04-08T08:11:19;15.80;;;8.20;;
70967;SDS011;58629;48.808;8.820;2023-04-08T08:13:46;14.07;;;8.20;;
70967;SDS011;58629;48.808;8.820;2023-04-08T08:16:11;14.33;;;7.83;;
70967;SDS011;58629;48.808;8.820;2023-04-08T08:18:37;15.90;;;8.50;;
70967;SDS011;58629;48.808;8.820;2023-04-08T08:21:04;19.07;;;11.93;;
70967;SDS011;58629;48.808;8.820;2023-04-08T08:23:29;15.73;;;9.10;;
70967;SDS011;58629;48.808;8.820;2023-04-08T08:26:00;13.73;;;7.93;;
70967;SDS011;58629;48.808;8.820;2023-04-08T08:28:27;15.90;;;7.93;;
70967;SDS011;58629;48.808;8.820;2023-04-08T08:30:52;13.27;;;7.93;;
70967;SDS011;58629;48.808;8.820;2023-04-08T08:33:18;15.77;;;8.37;;
70967;SDS011;58629;48.808;8.820;2023-04-08T08:35:43;15.40;;;8.30;;
70967;SDS011;58629;48.808;8.820;2023-04-08T08:38:09;14.80;;;7.70;;
70967;SDS011;58629;48.808;8.820;2023-04-08T08:40:34;15.10;;;9.17;;
70967;SDS011;58629;48.808;8.820;2023-04-08T08:43:00;17.37;;;8.67;;
70967;SDS011;58629;48.808;8.820;2023-04-08T08:45:25;16.43;;;9.03;;
70967;SDS011;58629;48.808;8.820;2023-04-08T08:47:51;16.03;;;9.30;;
70967;SDS011;58629;48.808;8.820;2023-04-08T08:50:16;18.30;;;9.80;;
70967;SDS011;58629;48.808;8.820;2023-04-08T08:52:48;18.47;;;9.63;;
70967;SDS011;58629;48.808;8.820;2023-04-08T08:55:20;15.60;;;9.68;;
70967;SDS011;58629;48.808;8.820;2023-04-08T08:57:48;19.23;;;10.57;;
70967;SDS011;58629;48.808;8.820;2023-04-08T09:00:15;15.40;;;9.25;;
70967;SDS011;58629;48.808;8.820;2023-04-08T09:02:40;15.23;;;9.40;;
70967;SDS011;58629;48.808;8.820;2023-04-08T09:05:06;15.60;;;9.32;;
70967;SDS011;58629;48.808;8.820;2023-04-08T09:07:34;16.47;;;9.67;;
70967;SDS011;58629;48.808;8.820;2023-04-08T09:10:01;15.30;;;9.60;;
70967;SDS011;58629;48.808;8.820;2023-04-08T09:12:26;17.43;;;9.43;;
70967;SDS011;58629;48.808;8.820;2023-04-08T09:15:04;17.63;;;10.95;;
70967;SDS011;58629;48.808;8.820;2023-04-08T09:17:37;16.33;;;9.02;;
70967;SDS011;58629;48.808;8.820;2023-04-08T09:20:03;16.40;;;10.05;;
70967;SDS011;58629;48.808;8.820;2023-04-08T09:22:54;14.73;;;9.27;;
70967;SDS011;58629;48.808;8.820;2023-04-08T09:25:26;15.07;;;9.33;;
70967;SDS011;58629;48.808;8.820;2023-04-08T09:27:53;14.85;;;9.38;;
70967;SDS011;58629;48.808;8.820;2023-04-08T09:30:20;16.27;;;10.00;;
70967;SDS011;58629;48.808;8.820;2023-04-08T09:32:50;16.58;;;8.95;;
70967;SDS011;58629;48.808;8.820;2023-04-08T09:35:17;12.90;;;8.10;;
70967;SDS011;58629;48.808;8.820;2023-04-08T09:37:43;13.38;;;8.60;;
70967;SDS011;58629;48.808;8.820;2023-04-08T09:40:09;14.80;;;9.35;;
70967;SDS011;58629;48.808;8.820;2023-04-08T09:42:36;14.73;;;8.63;;
70967;SDS011;58629;48.808;8.820;2023-04-08T09:45:05;10.73;;;6.93;;
70967;SDS011;58629;48.808;8.820;2023-04-08T09:47:36;13.60;;;8.70;;
70967;SDS011;58629;48.808;8.820;2023-04-08T09:50:06;12.18;;;8.00;;
70967;SDS011;58629;48.808;8.820;2023-04-08T09:52:35;15.55;;;9.45;;
70967;SDS011;58629;48.808;8.820;2023-04-08T09:55:08;14.18;;;9.05;;
70967;SDS011;58629;48.808;8.820;2023-04-08T09:57:39;14.40;;;9.55;;
70967;SDS011;58629;48.808;8.820;2023-04-08T10:00:08;14.97;;;10.07;;
70967;SDS011;58629;48.808;8.820;2023-04-08T10:02:51;13.80;;;8.95;;
70967;SDS011;58629;48.808;8.820;2023-04-08T10:05:43;14.35;;;8.82;;
70967;SDS011;58629;48.808;8.820;2023-04-08T10:08:10;12.90;;;8.50;;
70967;SDS011;58629;48.808;8.820;2023-04-08T10:10:37;13.63;;;9.27;;
70967;SDS011;58629;48.808;8.820;2023-04-08T10:13:04;15.50;;;9.63;;
70967;SDS011;58629;48.808;8.820;2023-04-08T10:15:31;12.68;;;9.00;;
70967;SDS011;58629;48.808;8.820;2023-04-08T10:22:58;12.63;;;8.82;;
70967;SDS011;58629;48.808;8.820;2023-04-08T10:25:28;11.02;;;7.40;;
70967;SDS011;58629;48.808;8.820;2023-04-08T10:27:55;12.55;;;8.30;;
70967;SDS011;58629;48.808;8.820;2023-04-08T10:32:52;11.30;;;8.13;;
70967;SDS011;58629;48.808;8.820;2023-04-08T10:35:36;12.50;;;8.57;;
70967;SDS011;58629;48.808;8.820;2023-04-08T10:38:05;14.30;;;9.90;;
70967;SDS011;58629;48.808;8.820;2023-04-08T10:40:34;15.48;;;10.68;;
70967;SDS011;58629;48.808;8.820;2023-04-08T10:43:02;15.25;;;10.15;;
70967;SDS011;58629;48.808;8.820;2023-04-08T10:45:29;14.07;;;10.00;;
70967;SDS011;58629;48.808;8.820;2023-04-08T10:47:54;12.83;;;8.30;;
70967;SDS011;58629;48.808;8.820;2023-04-08T10:50:20;12.20;;;8.97;;
70967;SDS011;58629;48.808;8.820;2023-04-08T10:52:51;14.65;;;10.10;;
70967;SDS011;58629;48.808;8.820;2023-04-08T10:55:21;12.87;;;8.53;;
70967;SDS011;58629;48.808;8.820;2023-04-08T10:57:47;11.25;;;8.18;;
70967;SDS011;58629;48.808;8.820;2023-04-08T11:00:18;12.90;;;8.95;;
70967;SDS011;58629;48.808;8.820;2023-04-08T11:03:00;12.35;;;9.02;;
70967;SDS011;58629;48.808;8.820;2023-04-08T11:05:27;10.98;;;7.50;;
70967;SDS011;58629;48.808;8.820;2023-04-08T11:07:52;15.47;;;8.77;;
70967;SDS011;58629;48.808;8.820;2023-04-08T11:10:18;9.73;;;7.15;;
70967;SDS011;58629;48.808;8.820;2023-04-08T11:12:44;13.35;;;9.38;;
70967;SDS011;58629;48.808;8.820;2023-04-08T11:15:09;15.27;;;9.87;;
70967;SDS011;58629;48.808;8.820;2023-04-08T11:17:37;14.32;;;9.88;;
70967;SDS011;58629;48.808;8.820;2023-04-08T11:20:02;16.27;;;10.10;;
70967;SDS011;58629;48.808;8.820;2023-04-08T11:22:30;14.90;;;9.82;;
70967;SDS011;58629;48.808;8.820;2023-04-08T11:24:57;12.32;;;8.60;;
70967;SDS011;58629;48.808;8.820;2023-04-08T11:27:23;11.52;;;7.93;;
70967;SDS011;58629;48.808;8.820;2023-04-08T11:29:50;9.48;;;7.13;;
70967;SDS011;58629;48.808;8.820;2023-04-08T11:32:17;14.88;;;9.15;;
70967;SDS011;58629;48.808;8.820;2023-04-08T11:34:43;11.43;;;7.83;;
70967;SDS011;58629;48.808;8.820;2023-04-08T11:37:08;13.05;;;8.75;;
70967;SDS011;58629;48.808;8.820;2023-04-08T11:39:39;13.63;;;9.55;;
70967;SDS011;58629;48.808;8.820;2023-04-08T11:42:06;15.98;;;10.70;;
70967;SDS011;58629;48.808;8.820;2023-04-08T11:44:31;14.82;;;10.05;;
70967;SDS011;58629;48.808;8.820;2023-04-08T11:46:57;13.50;;;10.07;;
70967;SDS011;58629;48.808;8.820;2023-04-08T11:49:23;16.67;;;9.87;;
70967;SDS011;58629;48.808;8.820;2023-04-08T11:51:57;14.18;;;9.70;;
70967;SDS011;58629;48.808;8.820;2023-04-08T11:54:25;15.43;;;10.30;;
70967;SDS011;58629;48.808;8.820;2023-04-08T11:56:54;14.93;;;9.57;;
70967;SDS011;58629;48.808;8.820;2023-04-08T11:59:22;13.25;;;9.30;;
70967;SDS011;58629;48.808;8.820;2023-04-08T12:01:50;13.95;;;9.10;;
70967;SDS011;58629;48.808;8.820;2023-04-08T12:04:16;13.07;;;8.63;;
70967;SDS011;58629;48.808;8.820;2023-04-08T12:06:41;14.00;;;9.07;;
70967;SDS011;58629;48.808;8.820;2023-04-08T12:09:10;14.43;;;9.25;;
70967;SDS011;58629;48.808;8.820;2023-04-08T12:11:36;14.40;;;9.07;;
70967;SDS011;58629;48.808;8.820;2023-04-08T12:14:01;14.35;;;9.48;;
70967;SDS011;58629;48.808;8.820;2023-04-08T12:16:27;14.38;;;9.13;;
70967;SDS011;58629;48.808;8.820;2023-04-08T12:18:52;14.63;;;8.83;;
70967;SDS011;58629;48.808;8.820;2023-04-08T12:21:17;17.60;;;9.80;;
70967;SDS011;58629;48.808;8.820;2023-04-08T12:23:43;14.07;;;9.23;;
70967;SDS011;58629;48.808;8.820;2023-04-08T12:26:08;15.67;;;10.00;;
70967;SDS011;58629;48.808;8.820;2023-04-08T12:28:34;14.03;;;9.40;;
70967;SDS011;58629;48.808;8.820;2023-04-08T12:31:00;15.35;;;9.98;;
70967;SDS011;58629;48.808;8.820;2023-04-08T12:33:25;16.08;;;10.10;;
70967;SDS011;58629;48.808;8.820;2023-04-08T12:35:51;16.47;;;9.70;;
70967;SDS011;58629;48.808;8.820;2023-04-08T12:38:16;16.50;;;10.63;;
70967;SDS011;58629;48.808;8.820;2023-04-08T12:40:42;16.30;;;10.30;;
70967;SDS011;58629;48.808;8.820;2023-04-08T12:43:07;16.27;;;10.25;;
70967;SDS011;58629;48.808;8.820;2023-04-08T12:45:32;15.30;;;10.10;;
70967;SDS011;58629;48.808;8.820;2023-04-08T12:47:58;14.97;;;9.70;;
70967;SDS011;58629;48.808;8.820;2023-04-08T12:50:23;15.87;;;9.77;;
70967;SDS011;58629;48.808;8.820;2023-04-08T12:52:48;13.93;;;9.17;;
70967;SDS011;58629;48.808;8.820;2023-04-08T12:55:14;15.03;;;9.40;;
70967;SDS011;58629;48.808;8.820;2023-04-08T12:57:39;13.47;;;9.00;;
70967;SDS011;58629;48.808;8.820;2023-04-08T13:00:04;15.17;;;9.77;;
70967;SDS011;58629;48.808;8.820;2023-04-08T13:02:30;12.93;;;9.07;;
70967;SDS011;58629;48.808;8.820;2023-04-08T13:04:56;14.33;;;9.37;;
70967;SDS011;58629;48.808;8.820;2023-04-08T13:07:21;15.17;;;9.30;;
70967;SDS011;58629;48.808;8.820;2023-04-08T13:09:47;13.73;;;9.65;;
70967;SDS011;58629;48.808;8.820;2023-04-08T13:12:13;14.77;;;9.43;;
70967;SDS011;58629;48.808;8.820;2023-04-08T13:14:38;14.00;;;9.70;;
70967;SDS011;58629;48.808;8.820;2023-04-08T13:17:03;16.13;;;9.90;;
70967;SDS011;58629;48.808;8.820;2023-04-08T13:19:29;15.17;;;9.87;;
70967;SDS011;58629;48.808;8.820;2023-04-08T13:21:54;14.82;;;9.57;;
70967;SDS011;58629;48.808;8.820;2023-04-08T13:24:20;16.13;;;10.02;;
70967;SDS011;58629;48.808;8.820;2023-04-08T13:26:45;15.70;;;9.90;;
70967;SDS011;58629;48.808;8.820;2023-04-08T13:29:10;14.47;;;8.93;;
70967;SDS011;58629;48.808;8.820;2023-04-08T13:31:36;16.73;;;11.40;;
70967;SDS011;58629;48.808;8.820;2023-04-08T13:34:01;16.80;;;11.07;;
70967;SDS011;58629;48.808;8.820;2023-04-08T13:36:26;15.37;;;9.77;;
70967;SDS011;58629;48.808;8.820;2023-04-08T13:38:52;14.15;;;9.82;;
70967;SDS011;58629;48.808;8.820;2023-04-08T13:41:18;12.43;;;9.07;;
70967;SDS011;58629;48.808;8.820;2023-04-08T13:43:45;14.77;;;9.90;;
70967;SDS011;58629;48.808;8.820;2023-04-08T13:46:10;13.40;;;9.43;;
70967;SDS011;58629;48.808;8.820;2023-04-08T13:48:35;14.25;;;9.98;;
70967;SDS011;58629;48.808;8.820;2023-04-08T13:51:01;13.60;;;9.23;;
70967;SDS011;58629;48.808;8.820;2023-04-08T13:53:26;15.07;;;9.70;;
70967;SDS011;58629;48.808;8.820;2023-04-08T13:55:51;14.37;;;9.83;;
70967;SDS011;58629;48.808;8.820;2023-04-08T13:58:19;12.48;;;8.82;;
70967;SDS011;58629;48.808;8.820;2023-04-08T14:00:45;14.60;;;10.00;;
70967;SDS011;58629;48.808;8.820;2023-04-08T14:03:11;13.23;;;8.75;;
70967;SDS011;58629;48.808;8.820;2023-04-08T14:05:36;13.07;;;8.80;;
70967;SDS011;58629;48.808;8.820;2023-04-08T14:08:02;13.87;;;9.10;;
70967;SDS011;58629;48.808;8.820;2023-04-08T14:10:27;13.57;;;9.70;;
70967;SDS011;58629;48.808;8.820;2023-04-08T14:12:52;12.60;;;9.30;;
70967;SDS011;58629;48.808;8.820;2023-04-08T14:15:18;13.15;;;8.75;;
70967;SDS011;58629;48.808;8.820;2023-04-08T14:17:43;11.53;;;7.90;;
70967;SDS011;58629;48.808;8.820;2023-04-08T14:20:08;12.00;;;8.30;;
70967;SDS011;58629;48.808;8.820;2023-04-08T14:22:34;10.53;;;7.57;;
70967;SDS011;58629;48.808;8.820;2023-04-08T14:24:59;11.27;;;7.90;;
70967;SDS011;58629;48.808;8.820;2023-04-08T14:27:25;10.87;;;7.20;;
70967;SDS011;58629;48.808;8.820;2023-04-08T14:29:50;12.85;;;9.00;;
70967;SDS011;58629;48.808;8.820;2023-04-08T14:32:15;12.27;;;8.80;;
70967;SDS011;58629;48.808;8.820;2023-04-08T14:34:41;11.83;;;8.43;;
70967;SDS011;58629;48.808;8.820;2023-04-08T14:37:06;10.63;;;7.67;;
70967;SDS011;58629;48.808;8.820;2023-04-08T14:39:31;11.93;;;7.90;;
70967;SDS011;58629;48.808;8.820;2023-04-08T14:41:57;14.87;;;9.50;;